Angola, Indiana
Current Conditions -  °F | °C
As of 5:55 PM on Thursday 20 Nov 2014 (Local Time) from KANQ Reporting Station
Broken Clouds Broken Clouds  
Wind Chill: 14°   Ceiling: 5500
Heat Index: 23°   Visibility: 10mi
Dew Point:   Wind: 8mph
Humidity: 54%   Direction: 270°W
Pressure: 30.04"   Gusts: NA
Location:  41.63°N, 85°W
Report Text: KANQ 202255Z AUTO 27007KT 230V300 10SM FEW047 BKN055 M05/M13 A3004 RMK
Loading
Personal Weather Stations






























Interactive Weather Map New forecast layout! Learn more

10-Day Weather Forecast

Advertisements
Track Severe Weather on mobile